sensor_id;sensor_type;location;lat;lon;timestamp;P1;durP1;ratioP1;P2;durP2;ratioP2
47892;SDS011;33650;51.064;13.756;2022-08-01T00:01:47;2.65;;;1.90;;
47892;SDS011;33650;51.064;13.756;2022-08-01T00:04:18;2.35;;;1.60;;
47892;SDS011;33650;51.064;13.756;2022-08-01T00:06:49;2.85;;;2.00;;
47892;SDS011;33650;51.064;13.756;2022-08-01T00:09:20;2.13;;;2.00;;
47892;SDS011;33650;51.064;13.756;2022-08-01T00:11:51;2.10;;;1.90;;
47892;SDS011;33650;51.064;13.756;2022-08-01T00:14:22;2.17;;;1.88;;
47892;SDS011;33650;51.064;13.756;2022-08-01T00:16:53;2.75;;;2.55;;
47892;SDS011;33650;51.064;13.756;2022-08-01T00:19:24;1.73;;;1.63;;
47892;SDS011;33650;51.064;13.756;2022-08-01T00:21:55;2.15;;;2.00;;
47892;SDS011;33650;51.064;13.756;2022-08-01T00:24:26;2.20;;;2.00;;
47892;SDS011;33650;51.064;13.756;2022-08-01T00:26:58;2.13;;;1.75;;
47892;SDS011;33650;51.064;13.756;2022-08-01T00:29:29;2.42;;;2.22;;
47892;SDS011;33650;51.064;13.756;2022-08-01T00:32:00;3.13;;;1.90;;
47892;SDS011;33650;51.064;13.756;2022-08-01T00:34:31;3.63;;;2.88;;
47892;SDS011;33650;51.064;13.756;2022-08-01T00:37:02;2.28;;;2.17;;
47892;SDS011;33650;51.064;13.756;2022-08-01T00:39:33;2.40;;;2.20;;
47892;SDS011;33650;51.064;13.756;2022-08-01T00:42:07;2.38;;;2.17;;
47892;SDS011;33650;51.064;13.756;2022-08-01T00:44:39;2.88;;;2.67;;
47892;SDS011;33650;51.064;13.756;2022-08-01T00:47:10;2.95;;;2.65;;
47892;SDS011;33650;51.064;13.756;2022-08-01T00:49:41;2.55;;;2.25;;
47892;SDS011;33650;51.064;13.756;2022-08-01T00:52:12;2.35;;;2.08;;
47892;SDS011;33650;51.064;13.756;2022-08-01T00:54:43;3.08;;;2.65;;
47892;SDS011;33650;51.064;13.756;2022-08-01T00:57:15;2.35;;;2.25;;
47892;SDS011;33650;51.064;13.756;2022-08-01T00:59:46;3.45;;;2.50;;
47892;SDS011;33650;51.064;13.756;2022-08-01T01:02:17;2.83;;;2.63;;
47892;SDS011;33650;51.064;13.756;2022-08-01T01:04:48;2.65;;;2.45;;
47892;SDS011;33650;51.064;13.756;2022-08-01T01:07:21;2.53;;;2.33;;
47892;SDS011;33650;51.064;13.756;2022-08-01T01:09:56;3.78;;;2.45;;
47892;SDS011;33650;51.064;13.756;2022-08-01T01:15:46;5.75;;;2.97;;
47892;SDS011;33650;51.064;13.756;2022-08-01T01:18:25;2.70;;;2.50;;
47892;SDS011;33650;51.064;13.756;2022-08-01T01:21:01;2.42;;;2.22;;
47892;SDS011;33650;51.064;13.756;2022-08-01T01:23:40;2.65;;;2.45;;
47892;SDS011;33650;51.064;13.756;2022-08-01T01:31:46;3.15;;;2.95;;
47892;SDS011;33650;51.064;13.756;2022-08-01T01:34:19;4.57;;;3.45;;
47892;SDS011;33650;51.064;13.756;2022-08-01T01:36:51;3.42;;;2.65;;
47892;SDS011;33650;51.064;13.756;2022-08-01T01:39:23;2.95;;;2.75;;
47892;SDS011;33650;51.064;13.756;2022-08-01T01:41:55;4.20;;;3.78;;
47892;SDS011;33650;51.064;13.756;2022-08-01T01:44:27;5.25;;;4.28;;
47892;SDS011;33650;51.064;13.756;2022-08-01T01:46:59;3.05;;;2.63;;
47892;SDS011;33650;51.064;13.756;2022-08-01T01:49:31;2.92;;;2.65;;
47892;SDS011;33650;51.064;13.756;2022-08-01T01:52:02;4.25;;;3.03;;
47892;SDS011;33650;51.064;13.756;2022-08-01T01:54:39;7.18;;;4.10;;
47892;SDS011;33650;51.064;13.756;2022-08-01T01:57:11;3.95;;;3.17;;
47892;SDS011;33650;51.064;13.756;2022-08-01T01:59:43;3.25;;;2.95;;
47892;SDS011;33650;51.064;13.756;2022-08-01T02:02:14;4.28;;;3.03;;
47892;SDS011;33650;51.064;13.756;2022-08-01T02:04:46;2.92;;;2.72;;
47892;SDS011;33650;51.064;13.756;2022-08-01T02:07:19;3.63;;;3.13;;
47892;SDS011;33650;51.064;13.756;2022-08-01T02:09:51;8.77;;;3.05;;
47892;SDS011;33650;51.064;13.756;2022-08-01T02:12:23;2.67;;;2.47;;
47892;SDS011;33650;51.064;13.756;2022-08-01T02:14:54;4.88;;;3.00;;
47892;SDS011;33650;51.064;13.756;2022-08-01T02:17:26;3.17;;;2.88;;
47892;SDS011;33650;51.064;13.756;2022-08-01T02:19:58;6.93;;;2.45;;
47892;SDS011;33650;51.064;13.756;2022-08-01T02:22:33;3.40;;;3.10;;
47892;SDS011;33650;51.064;13.756;2022-08-01T02:25:10;4.07;;;2.70;;
47892;SDS011;33650;51.064;13.756;2022-08-01T02:28:04;4.47;;;2.80;;
47892;SDS011;33650;51.064;13.756;2022-08-01T02:30:35;2.80;;;2.60;;
47892;SDS011;33650;51.064;13.756;2022-08-01T02:33:16;3.17;;;2.88;;
47892;SDS011;33650;51.064;13.756;2022-08-01T02:35:49;4.45;;;4.05;;
47892;SDS011;33650;51.064;13.756;2022-08-01T02:38:22;2.63;;;2.42;;
47892;SDS011;33650;51.064;13.756;2022-08-01T02:40:55;2.90;;;2.67;;
47892;SDS011;33650;51.064;13.756;2022-08-01T02:43:27;4.40;;;2.83;;
47892;SDS011;33650;51.064;13.756;2022-08-01T02:46:00;6.75;;;2.65;;
47892;SDS011;33650;51.064;13.756;2022-08-01T02:48:33;2.75;;;2.55;;
47892;SDS011;33650;51.064;13.756;2022-08-01T02:51:05;2.95;;;2.67;;
47892;SDS011;33650;51.064;13.756;2022-08-01T02:53:37;4.20;;;3.38;;
47892;SDS011;33650;51.064;13.756;2022-08-01T02:56:11;2.45;;;2.25;;
47892;SDS011;33650;51.064;13.756;2022-08-01T02:58:42;3.55;;;3.05;;
47892;SDS011;33650;51.064;13.756;2022-08-01T03:01:15;3.42;;;2.97;;
47892;SDS011;33650;51.064;13.756;2022-08-01T03:03:47;3.28;;;2.97;;
47892;SDS011;33650;51.064;13.756;2022-08-01T03:06:18;2.80;;;2.60;;
47892;SDS011;33650;51.064;13.756;2022-08-01T03:08:49;5.00;;;3.47;;
47892;SDS011;33650;51.064;13.756;2022-08-01T03:11:21;3.83;;;2.80;;
47892;SDS011;33650;51.064;13.756;2022-08-01T03:13:53;2.72;;;2.45;;
47892;SDS011;33650;51.064;13.756;2022-08-01T03:16:24;3.75;;;3.10;;
47892;SDS011;33650;51.064;13.756;2022-08-01T03:18:56;3.40;;;2.70;;
47892;SDS011;33650;51.064;13.756;2022-08-01T03:21:28;3.38;;;3.08;;
47892;SDS011;33650;51.064;13.756;2022-08-01T03:24:00;3.90;;;3.60;;
47892;SDS011;33650;51.064;13.756;2022-08-01T03:26:33;3.10;;;2.90;;
47892;SDS011;33650;51.064;13.756;2022-08-01T03:29:06;2.95;;;2.75;;
47892;SDS011;33650;51.064;13.756;2022-08-01T03:31:37;3.08;;;2.55;;
47892;SDS011;33650;51.064;13.756;2022-08-01T03:34:12;3.35;;;3.15;;
47892;SDS011;33650;51.064;13.756;2022-08-01T03:36:47;2.75;;;2.55;;
47892;SDS011;33650;51.064;13.756;2022-08-01T03:39:18;3.10;;;2.30;;
47892;SDS011;33650;51.064;13.756;2022-08-01T03:41:54;4.93;;;2.67;;
47892;SDS011;33650;51.064;13.756;2022-08-01T03:44:27;2.88;;;2.67;;
47892;SDS011;33650;51.064;13.756;2022-08-01T03:47:03;3.35;;;3.05;;
47892;SDS011;33650;51.064;13.756;2022-08-01T03:49:41;3.33;;;3.03;;
47892;SDS011;33650;51.064;13.756;2022-08-01T03:52:13;2.97;;;2.78;;
47892;SDS011;33650;51.064;13.756;2022-08-01T03:54:46;5.38;;;3.00;;
47892;SDS011;33650;51.064;13.756;2022-08-01T03:57:18;2.42;;;2.22;;
47892;SDS011;33650;51.064;13.756;2022-08-01T03:59:49;2.53;;;2.42;;
47892;SDS011;33650;51.064;13.756;2022-08-01T04:02:21;5.15;;;2.78;;
47892;SDS011;33650;51.064;13.756;2022-08-01T04:04:52;3.17;;;2.90;;
47892;SDS011;33650;51.064;13.756;2022-08-01T04:07:24;3.88;;;3.38;;
47892;SDS011;33650;51.064;13.756;2022-08-01T04:09:55;5.05;;;3.53;;
47892;SDS011;33650;51.064;13.756;2022-08-01T04:12:26;3.20;;;2.90;;
47892;SDS011;33650;51.064;13.756;2022-08-01T04:14:57;6.53;;;4.18;;
47892;SDS011;33650;51.064;13.756;2022-08-01T04:17:29;3.58;;;2.63;;
47892;SDS011;33650;51.064;13.756;2022-08-01T04:20:00;3.33;;;2.92;;
47892;SDS011;33650;51.064;13.756;2022-08-01T04:22:31;3.28;;;2.97;;
47892;SDS011;33650;51.064;13.756;2022-08-01T04:25:02;6.82;;;2.65;;
47892;SDS011;33650;51.064;13.756;2022-08-01T04:27:38;3.00;;;2.70;;
47892;SDS011;33650;51.064;13.756;2022-08-01T04:30:11;3.67;;;2.97;;
47892;SDS011;33650;51.064;13.756;2022-08-01T04:32:43;2.90;;;2.70;;
47892;SDS011;33650;51.064;13.756;2022-08-01T04:35:15;4.32;;;3.17;;
47892;SDS011;33650;51.064;13.756;2022-08-01T04:37:48;2.80;;;2.53;;
47892;SDS011;33650;51.064;13.756;2022-08-01T04:40:21;8.52;;;3.53;;
47892;SDS011;33650;51.064;13.756;2022-08-01T04:42:52;2.20;;;2.00;;
47892;SDS011;33650;51.064;13.756;2022-08-01T04:45:23;2.78;;;2.58;;
47892;SDS011;33650;51.064;13.756;2022-08-01T04:47:54;2.85;;;2.55;;
47892;SDS011;33650;51.064;13.756;2022-08-01T04:50:26;2.72;;;2.53;;
47892;SDS011;33650;51.064;13.756;2022-08-01T04:52:57;3.15;;;2.90;;
47892;SDS011;33650;51.064;13.756;2022-08-01T04:55:29;3.10;;;2.88;;
47892;SDS011;33650;51.064;13.756;2022-08-01T04:58:01;5.25;;;3.45;;
47892;SDS011;33650;51.064;13.756;2022-08-01T05:00:32;4.80;;;2.80;;
47892;SDS011;33650;51.064;13.756;2022-08-01T05:03:04;2.80;;;2.40;;
47892;SDS011;33650;51.064;13.756;2022-08-01T05:05:35;5.60;;;3.00;;
47892;SDS011;33650;51.064;13.756;2022-08-01T05:08:06;3.22;;;2.83;;
47892;SDS011;33650;51.064;13.756;2022-08-01T05:10:37;5.55;;;2.78;;
47892;SDS011;33650;51.064;13.756;2022-08-01T05:13:08;4.53;;;2.95;;
47892;SDS011;33650;51.064;13.756;2022-08-01T05:15:39;2.53;;;2.33;;
47892;SDS011;33650;51.064;13.756;2022-08-01T05:18:11;2.53;;;2.33;;
47892;SDS011;33650;51.064;13.756;2022-08-01T05:20:42;3.22;;;2.75;;
47892;SDS011;33650;51.064;13.756;2022-08-01T05:23:13;2.70;;;2.50;;
47892;SDS011;33650;51.064;13.756;2022-08-01T05:25:44;3.72;;;3.42;;
47892;SDS011;33650;51.064;13.756;2022-08-01T05:28:15;3.03;;;2.67;;
47892;SDS011;33650;51.064;13.756;2022-08-01T05:30:46;3.33;;;3.00;;
47892;SDS011;33650;51.064;13.756;2022-08-01T05:33:17;3.25;;;2.85;;
47892;SDS011;33650;51.064;13.756;2022-08-01T05:35:50;3.50;;;2.80;;
47892;SDS011;33650;51.064;13.756;2022-08-01T05:38:21;7.60;;;3.45;;
47892;SDS011;33650;51.064;13.756;2022-08-01T05:40:52;4.88;;;2.45;;
47892;SDS011;33650;51.064;13.756;2022-08-01T05:43:23;2.33;;;2.13;;
47892;SDS011;33650;51.064;13.756;2022-08-01T05:45:54;2.47;;;2.28;;
47892;SDS011;33650;51.064;13.756;2022-08-01T05:48:26;4.13;;;2.70;;
47892;SDS011;33650;51.064;13.756;2022-08-01T05:50:57;4.15;;;2.10;;
47892;SDS011;33650;51.064;13.756;2022-08-01T05:53:28;2.65;;;2.45;;
47892;SDS011;33650;51.064;13.756;2022-08-01T05:55:59;2.50;;;2.08;;
47892;SDS011;33650;51.064;13.756;2022-08-01T05:58:34;2.63;;;2.42;;
47892;SDS011;33650;51.064;13.756;2022-08-01T06:01:05;3.60;;;2.38;;
47892;SDS011;33650;51.064;13.756;2022-08-01T06:03:36;2.72;;;2.45;;
47892;SDS011;33650;51.064;13.756;2022-08-01T06:06:07;2.45;;;2.00;;
47892;SDS011;33650;51.064;13.756;2022-08-01T06:08:38;2.20;;;2.00;;
47892;SDS011;33650;51.064;13.756;2022-08-01T06:11:09;2.85;;;2.55;;
47892;SDS011;33650;51.064;13.756;2022-08-01T06:13:40;2.33;;;2.13;;
47892;SDS011;33650;51.064;13.756;2022-08-01T06:16:11;2.67;;;2.47;;
47892;SDS011;33650;51.064;13.756;2022-08-01T06:18:42;2.22;;;2.05;;
47892;SDS011;33650;51.064;13.756;2022-08-01T06:21:13;5.28;;;2.88;;
47892;SDS011;33650;51.064;13.756;2022-08-01T06:23:44;2.17;;;2.08;;
47892;SDS011;33650;51.064;13.756;2022-08-01T06:26:18;3.13;;;2.22;;
47892;SDS011;33650;51.064;13.756;2022-08-01T06:28:50;2.22;;;1.95;;
47892;SDS011;33650;51.064;13.756;2022-08-01T06:31:21;2.50;;;2.00;;
47892;SDS011;33650;51.064;13.756;2022-08-01T06:33:52;2.60;;;2.40;;
47892;SDS011;33650;51.064;13.756;2022-08-01T06:36:23;3.30;;;2.88;;
47892;SDS011;33650;51.064;13.756;2022-08-01T06:38:55;2.28;;;2.08;;
47892;SDS011;33650;51.064;13.756;2022-08-01T06:41:26;2.40;;;2.15;;
47892;SDS011;33650;51.064;13.756;2022-08-01T06:43:57;2.72;;;2.20;;
47892;SDS011;33650;51.064;13.756;2022-08-01T06:46:32;3.15;;;2.80;;
47892;SDS011;33650;51.064;13.756;2022-08-01T06:49:03;3.28;;;2.97;;
47892;SDS011;33650;51.064;13.756;2022-08-01T06:51:34;1.88;;;1.77;;
47892;SDS011;33650;51.064;13.756;2022-08-01T06:54:05;2.20;;;2.00;;
47892;SDS011;33650;51.064;13.756;2022-08-01T06:56:36;3.33;;;1.35;;
47892;SDS011;33650;51.064;13.756;2022-08-01T06:59:08;2.03;;;1.65;;
47892;SDS011;33650;51.064;13.756;2022-08-01T07:01:39;2.55;;;2.35;;
47892;SDS011;33650;51.064;13.756;2022-08-01T07:04:11;4.03;;;2.35;;
47892;SDS011;33650;51.064;13.756;2022-08-01T07:06:42;3.38;;;2.20;;
47892;SDS011;33650;51.064;13.756;2022-08-01T07:09:13;3.55;;;3.25;;
47892;SDS011;33650;51.064;13.756;2022-08-01T07:11:44;3.97;;;3.45;;
47892;SDS011;33650;51.064;13.756;2022-08-01T07:14:15;4.43;;;4.03;;
47892;SDS011;33650;51.064;13.756;2022-08-01T07:16:46;4.55;;;3.95;;
47892;SDS011;33650;51.064;13.756;2022-08-01T07:19:17;4.30;;;4.00;;
47892;SDS011;33650;51.064;13.756;2022-08-01T07:21:48;4.40;;;3.83;;
47892;SDS011;33650;51.064;13.756;2022-08-01T07:24:19;5.68;;;4.03;;
47892;SDS011;33650;51.064;13.756;2022-08-01T07:26:50;4.70;;;4.30;;
47892;SDS011;33650;51.064;13.756;2022-08-01T07:29:24;4.50;;;4.10;;
47892;SDS011;33650;51.064;13.756;2022-08-01T07:31:56;4.70;;;4.30;;
47892;SDS011;33650;51.064;13.756;2022-08-01T07:34:27;4.88;;;4.45;;
47892;SDS011;33650;51.064;13.756;2022-08-01T07:36:58;6.00;;;5.05;;
47892;SDS011;33650;51.064;13.756;2022-08-01T07:39:29;5.47;;;4.97;;
47892;SDS011;33650;51.064;13.756;2022-08-01T07:42:00;4.50;;;4.10;;
47892;SDS011;33650;51.064;13.756;2022-08-01T07:44:31;5.03;;;4.53;;
47892;SDS011;33650;51.064;13.756;2022-08-01T07:47:03;5.82;;;4.30;;
47892;SDS011;33650;51.064;13.756;2022-08-01T07:49:34;6.15;;;3.97;;
47892;SDS011;33650;51.064;13.756;2022-08-01T07:52:05;7.03;;;4.70;;
47892;SDS011;33650;51.064;13.756;2022-08-01T07:54:36;5.00;;;4.45;;
47892;SDS011;33650;51.064;13.756;2022-08-01T07:57:07;5.55;;;4.35;;
47892;SDS011;33650;51.064;13.756;2022-08-01T07:59:39;5.20;;;4.80;;
47892;SDS011;33650;51.064;13.756;2022-08-01T08:02:10;4.82;;;4.00;;
47892;SDS011;33650;51.064;13.756;2022-08-01T08:04:41;5.88;;;4.55;;
47892;SDS011;33650;51.064;13.756;2022-08-01T08:07:12;5.50;;;4.18;;
47892;SDS011;33650;51.064;13.756;2022-08-01T08:09:43;4.45;;;4.05;;
47892;SDS011;33650;51.064;13.756;2022-08-01T08:12:14;4.72;;;3.50;;
47892;SDS011;33650;51.064;13.756;2022-08-01T08:14:45;3.70;;;3.33;;
47892;SDS011;33650;51.064;13.756;2022-08-01T08:17:16;4.05;;;2.72;;
47892;SDS011;33650;51.064;13.756;2022-08-01T08:19:47;2.67;;;2.47;;
47892;SDS011;33650;51.064;13.756;2022-08-01T08:22:18;3.85;;;2.60;;
47892;SDS011;33650;51.064;13.756;2022-08-01T08:24:49;3.13;;;2.90;;
47892;SDS011;33650;51.064;13.756;2022-08-01T08:27:21;3.13;;;2.58;;
47892;SDS011;33650;51.064;13.756;2022-08-01T08:29:52;4.88;;;2.45;;
47892;SDS011;33650;51.064;13.756;2022-08-01T08:32:23;2.97;;;2.63;;
47892;SDS011;33650;51.064;13.756;2022-08-01T08:34:54;2.75;;;2.55;;
47892;SDS011;33650;51.064;13.756;2022-08-01T08:37:25;2.33;;;2.13;;
47892;SDS011;33650;51.064;13.756;2022-08-01T08:39:56;2.38;;;1.75;;
47892;SDS011;33650;51.064;13.756;2022-08-01T08:42:27;2.00;;;1.90;;
47892;SDS011;33650;51.064;13.756;2022-08-01T08:44:58;3.00;;;2.28;;
47892;SDS011;33650;51.064;13.756;2022-08-01T08:47:29;2.05;;;1.88;;
47892;SDS011;33650;51.064;13.756;2022-08-01T08:50:03;3.40;;;1.90;;
47892;SDS011;33650;51.064;13.756;2022-08-01T08:52:35;2.00;;;1.90;;
47892;SDS011;33650;51.064;13.756;2022-08-01T08:55:09;3.33;;;2.00;;
47892;SDS011;33650;51.064;13.756;2022-08-01T08:57:42;1.92;;;1.60;;
47892;SDS011;33650;51.064;13.756;2022-08-01T09:00:14;2.88;;;1.63;;
47892;SDS011;33650;51.064;13.756;2022-08-01T09:02:46;2.33;;;2.13;;
47892;SDS011;33650;51.064;13.756;2022-08-01T09:05:19;2.10;;;1.52;;
47892;SDS011;33650;51.064;13.756;2022-08-01T09:07:55;1.85;;;1.45;;
47892;SDS011;33650;51.064;13.756;2022-08-01T09:10:26;3.63;;;1.67;;
47892;SDS011;33650;51.064;13.756;2022-08-01T09:13:05;2.22;;;1.60;;
47892;SDS011;33650;51.064;13.756;2022-08-01T09:15:47;2.25;;;2.05;;
47892;SDS011;33650;51.064;13.756;2022-08-01T09:18:27;1.80;;;1.05;;
47892;SDS011;33650;51.064;13.756;2022-08-01T09:23:47;3.40;;;1.30;;
47892;SDS011;33650;51.064;13.756;2022-08-01T09:26:19;2.42;;;1.33;;
47892;SDS011;33650;51.064;13.756;2022-08-01T09:28:51;1.65;;;1.38;;
47892;SDS011;33650;51.064;13.756;2022-08-01T09:31:22;1.73;;;1.63;;
47892;SDS011;33650;51.064;13.756;2022-08-01T09:36:25;2.22;;;1.98;;
47892;SDS011;33650;51.064;13.756;2022-08-01T09:38:57;2.33;;;2.13;;
47892;SDS011;33650;51.064;13.756;2022-08-01T09:41:42;2.30;;;2.10;;
47892;SDS011;33650;51.064;13.756;2022-08-01T09:44:13;2.38;;;2.17;;
47892;SDS011;33650;51.064;13.756;2022-08-01T09:46:54;2.17;;;1.98;;
47892;SDS011;33650;51.064;13.756;2022-08-01T09:49:43;1.88;;;1.65;;
47892;SDS011;33650;51.064;13.756;2022-08-01T09:52:16;1.60;;;1.50;;
47892;SDS011;33650;51.064;13.756;2022-08-01T09:54:54;2.20;;;1.58;;
47892;SDS011;33650;51.064;13.756;2022-08-01T09:57:26;2.50;;;1.70;;
47892;SDS011;33650;51.064;13.756;2022-08-01T09:59:58;1.92;;;1.58;;
47892;SDS011;33650;51.064;13.756;2022-08-01T10:02:33;1.40;;;1.30;;
47892;SDS011;33650;51.064;13.756;2022-08-01T10:05:06;0.85;;;0.85;;
47892;SDS011;33650;51.064;13.756;2022-08-01T10:07:54;1.65;;;1.00;;
47892;SDS011;33650;51.064;13.756;2022-08-01T10:10:26;1.20;;;1.10;;
47892;SDS011;33650;51.064;13.756;2022-08-01T10:12:58;1.20;;;1.20;;
47892;SDS011;33650;51.064;13.756;2022-08-01T10:15:29;1.40;;;1.33;;
47892;SDS011;33650;51.064;13.756;2022-08-01T10:18:02;1.13;;;1.10;;
47892;SDS011;33650;51.064;13.756;2022-08-01T10:20:34;1.55;;;1.45;;
47892;SDS011;33650;51.064;13.756;2022-08-01T10:23:05;1.77;;;1.48;;
47892;SDS011;33650;51.064;13.756;2022-08-01T10:25:37;1.20;;;1.10;;
47892;SDS011;33650;51.064;13.756;2022-08-01T10:28:13;0.93;;;0.80;;
47892;SDS011;33650;51.064;13.756;2022-08-01T10:30:45;2.35;;;1.23;;
47892;SDS011;33650;51.064;13.756;2022-08-01T10:33:17;1.25;;;1.20;;
47892;SDS011;33650;51.064;13.756;2022-08-01T10:35:48;0.95;;;0.95;;
47892;SDS011;33650;51.064;13.756;2022-08-01T10:38:19;1.35;;;1.23;;
47892;SDS011;33650;51.064;13.756;2022-08-01T10:40:50;1.35;;;1.00;;
47892;SDS011;33650;51.064;13.756;2022-08-01T10:43:23;2.33;;;0.90;;
47892;SDS011;33650;51.064;13.756;2022-08-01T10:45:54;1.20;;;1.10;;
47892;SDS011;33650;51.064;13.756;2022-08-01T10:50:58;0.88;;;0.88;;
47892;SDS011;33650;51.064;13.756;2022-08-01T10:53:29;0.70;;;0.70;;
47892;SDS011;33650;51.064;13.756;2022-08-01T10:56:01;0.60;;;0.60;;
47892;SDS011;33650;51.064;13.756;2022-08-01T10:58:34;0.73;;;0.73;;
47892;SDS011;33650;51.064;13.756;2022-08-01T11:01:18;2.08;;;0.68;;
47892;SDS011;33650;51.064;13.756;2022-08-01T11:03:56;0.50;;;0.50;;
47892;SDS011;33650;51.064;13.756;2022-08-01T11:09:14;0.98;;;0.77;;
47892;SDS011;33650;51.064;13.756;2022-08-01T11:17:43;0.50;;;0.50;;
47892;SDS011;33650;51.064;13.756;2022-08-01T11:20:18;0.57;;;0.57;;
47892;SDS011;33650;51.064;13.756;2022-08-01T11:33:17;0.73;;;0.73;;
47892;SDS011;33650;51.064;13.756;2022-08-01T11:41:29;0.75;;;0.43;;
47892;SDS011;33650;51.064;13.756;2022-08-01T11:44:04;0.90;;;0.50;;
47892;SDS011;33650;51.064;13.756;2022-08-01T11:49:23;2.25;;;0.40;;
47892;SDS011;33650;51.064;13.756;2022-08-01T11:52:02;0.50;;;0.45;;
47892;SDS011;33650;51.064;13.756;2022-08-01T11:54:35;1.13;;;0.70;;
47892;SDS011;33650;51.064;13.756;2022-08-01T11:57:07;0.80;;;0.80;;
47892;SDS011;33650;51.064;13.756;2022-08-01T11:59:42;0.63;;;0.55;;
47892;SDS011;33650;51.064;13.756;2022-08-01T12:07:21;0.55;;;0.47;;
47892;SDS011;33650;51.064;13.756;2022-08-01T12:12:30;4.97;;;3.95;;
47892;SDS011;33650;51.064;13.756;2022-08-01T12:15:03;13.35;;;7.38;;
47892;SDS011;33650;51.064;13.756;2022-08-01T12:17:35;0.65;;;0.65;;
47892;SDS011;33650;51.064;13.756;2022-08-01T12:20:08;0.60;;;0.60;;
47892;SDS011;33650;51.064;13.756;2022-08-01T12:22:39;0.52;;;0.50;;
47892;SDS011;33650;51.064;13.756;2022-08-01T12:25:12;0.73;;;0.73;;
47892;SDS011;33650;51.064;13.756;2022-08-01T12:27:44;7.32;;;5.40;;
47892;SDS011;33650;51.064;13.756;2022-08-01T12:30:17;0.50;;;0.50;;
47892;SDS011;33650;51.064;13.756;2022-08-01T12:32:48;0.60;;;0.60;;
47892;SDS011;33650;51.064;13.756;2022-08-01T12:35:23;0.75;;;0.75;;
47892;SDS011;33650;51.064;13.756;2022-08-01T12:37:56;2.22;;;1.80;;
47892;SDS011;33650;51.064;13.756;2022-08-01T12:40:28;1.23;;;1.13;;
47892;SDS011;33650;51.064;13.756;2022-08-01T12:43:01;0.60;;;0.60;;
47892;SDS011;33650;51.064;13.756;2022-08-01T12:45:39;0.47;;;0.40;;
47892;SDS011;33650;51.064;13.756;2022-08-01T12:48:14;0.75;;;0.50;;
47892;SDS011;33650;51.064;13.756;2022-08-01T12:50:47;1.27;;;0.70;;
47892;SDS011;33650;51.064;13.756;2022-08-01T12:53:18;2.63;;;0.63;;
47892;SDS011;33650;51.064;13.756;2022-08-01T12:55:50;0.55;;;0.55;;
47892;SDS011;33650;51.064;13.756;2022-08-01T12:58:21;2.78;;;0.60;;
47892;SDS011;33650;51.064;13.756;2022-08-01T13:01:02;4.03;;;0.50;;
47892;SDS011;33650;51.064;13.756;2022-08-01T13:03:34;0.85;;;0.73;;
47892;SDS011;33650;51.064;13.756;2022-08-01T13:06:12;0.90;;;0.50;;
47892;SDS011;33650;51.064;13.756;2022-08-01T13:08:44;0.40;;;0.40;;
47892;SDS011;33650;51.064;13.756;2022-08-01T13:11:16;0.70;;;0.55;;
47892;SDS011;33650;51.064;13.756;2022-08-01T13:13:49;0.68;;;0.52;;
47892;SDS011;33650;51.064;13.756;2022-08-01T13:16:22;0.65;;;0.65;;
47892;SDS011;33650;51.064;13.756;2022-08-01T13:18:54;1.35;;;0.70;;
47892;SDS011;33650;51.064;13.756;2022-08-01T13:21:27;1.13;;;0.60;;
47892;SDS011;33650;51.064;13.756;2022-08-01T13:24:04;0.70;;;0.70;;
47892;SDS011;33650;51.064;13.756;2022-08-01T13:29:48;1.88;;;0.45;;
47892;SDS011;33650;51.064;13.756;2022-08-01T13:32:16;1.63;;;0.70;;
47892;SDS011;33650;51.064;13.756;2022-08-01T13:34:47;2.40;;;0.52;;
47892;SDS011;33650;51.064;13.756;2022-08-01T13:37:19;0.70;;;0.55;;
47892;SDS011;33650;51.064;13.756;2022-08-01T13:39:50;0.65;;;0.65;;
47892;SDS011;33650;51.064;13.756;2022-08-01T13:42:21;1.30;;;0.30;;
47892;SDS011;33650;51.064;13.756;2022-08-01T13:44:52;0.63;;;0.60;;
47892;SDS011;33650;51.064;13.756;2022-08-01T13:47:23;0.93;;;0.50;;
47892;SDS011;33650;51.064;13.756;2022-08-01T13:49:54;0.50;;;0.50;;
47892;SDS011;33650;51.064;13.756;2022-08-01T13:52:27;0.45;;;0.45;;
47892;SDS011;33650;51.064;13.756;2022-08-01T13:55:00;0.22;;;0.22;;
47892;SDS011;33650;51.064;13.756;2022-08-01T13:57:31;0.63;;;0.63;;
47892;SDS011;33650;51.064;13.756;2022-08-01T14:00:03;0.40;;;0.40;;
47892;SDS011;33650;51.064;13.756;2022-08-01T14:02:42;0.57;;;0.47;;
47892;SDS011;33650;51.064;13.756;2022-08-01T14:05:13;0.88;;;0.38;;
47892;SDS011;33650;51.064;13.756;2022-08-01T14:07:44;0.32;;;0.32;;
47892;SDS011;33650;51.064;13.756;2022-08-01T14:10:15;0.60;;;0.45;;
47892;SDS011;33650;51.064;13.756;2022-08-01T14:12:46;0.88;;;0.40;;
47892;SDS011;33650;51.064;13.756;2022-08-01T14:15:18;1.52;;;0.43;;
47892;SDS011;33650;51.064;13.756;2022-08-01T14:17:49;0.55;;;0.55;;
47892;SDS011;33650;51.064;13.756;2022-08-01T14:20:20;0.40;;;0.40;;
47892;SDS011;33650;51.064;13.756;2022-08-01T14:22:51;0.55;;;0.55;;
47892;SDS011;33650;51.064;13.756;2022-08-01T14:25:22;0.50;;;0.50;;
47892;SDS011;33650;51.064;13.756;2022-08-01T14:27:53;0.70;;;0.70;;
47892;SDS011;33650;51.064;13.756;2022-08-01T14:30:25;0.70;;;0.70;;
47892;SDS011;33650;51.064;13.756;2022-08-01T14:32:56;0.98;;;0.60;;
47892;SDS011;33650;51.064;13.756;2022-08-01T14:35:27;0.80;;;0.80;;
47892;SDS011;33650;51.064;13.756;2022-08-01T14:37:58;0.40;;;0.40;;
47892;SDS011;33650;51.064;13.756;2022-08-01T14:40:29;0.70;;;0.60;;
47892;SDS011;33650;51.064;13.756;2022-08-01T14:43:00;1.67;;;0.52;;
47892;SDS011;33650;51.064;13.756;2022-08-01T14:45:31;0.85;;;0.85;;
47892;SDS011;33650;51.064;13.756;2022-08-01T14:48:03;2.42;;;0.77;;
47892;SDS011;33650;51.064;13.756;2022-08-01T14:50:34;0.80;;;0.80;;
47892;SDS011;33650;51.064;13.756;2022-08-01T14:53:05;0.60;;;0.60;;
47892;SDS011;33650;51.064;13.756;2022-08-01T14:55:36;0.73;;;0.73;;
47892;SDS011;33650;51.064;13.756;2022-08-01T14:58:07;1.17;;;0.50;;
47892;SDS011;33650;51.064;13.756;2022-08-01T15:00:38;0.50;;;0.47;;
47892;SDS011;33650;51.064;13.756;2022-08-01T15:03:09;0.52;;;0.52;;
47892;SDS011;33650;51.064;13.756;2022-08-01T15:05:40;0.73;;;0.43;;
47892;SDS011;33650;51.064;13.756;2022-08-01T15:08:11;0.30;;;0.30;;
47892;SDS011;33650;51.064;13.756;2022-08-01T15:10:42;0.63;;;0.50;;
47892;SDS011;33650;51.064;13.756;2022-08-01T15:13:13;0.70;;;0.70;;
47892;SDS011;33650;51.064;13.756;2022-08-01T15:15:44;0.60;;;0.60;;
47892;SDS011;33650;51.064;13.756;2022-08-01T15:18:15;0.50;;;0.50;;
47892;SDS011;33650;51.064;13.756;2022-08-01T15:20:46;0.80;;;0.80;;
47892;SDS011;33650;51.064;13.756;2022-08-01T15:23:17;1.48;;;0.65;;
47892;SDS011;33650;51.064;13.756;2022-08-01T15:25:48;2.15;;;0.80;;
47892;SDS011;33650;51.064;13.756;2022-08-01T15:28:20;0.50;;;0.50;;
47892;SDS011;33650;51.064;13.756;2022-08-01T15:30:51;0.85;;;0.85;;
47892;SDS011;33650;51.064;13.756;2022-08-01T15:33:22;0.63;;;0.63;;
47892;SDS011;33650;51.064;13.756;2022-08-01T15:35:53;0.45;;;0.45;;
47892;SDS011;33650;51.064;13.756;2022-08-01T15:38:24;0.50;;;0.50;;
47892;SDS011;33650;51.064;13.756;2022-08-01T15:40:55;0.60;;;0.60;;
47892;SDS011;33650;51.064;13.756;2022-08-01T15:43:27;1.20;;;0.93;;
47892;SDS011;33650;51.064;13.756;2022-08-01T15:45:58;0.65;;;0.65;;
47892;SDS011;33650;51.064;13.756;2022-08-01T15:48:30;0.68;;;0.50;;
47892;SDS011;33650;51.064;13.756;2022-08-01T15:51:01;0.65;;;0.60;;
47892;SDS011;33650;51.064;13.756;2022-08-01T15:53:32;0.60;;;0.60;;
47892;SDS011;33650;51.064;13.756;2022-08-01T15:56:03;1.02;;;0.50;;
47892;SDS011;33650;51.064;13.756;2022-08-01T15:58:35;0.60;;;0.60;;